Time;durP1;ratioP1;P1;durP2;ratioP2;P2;SDS_P1;SDS_P2;PMS_P1;PMS_P2;Temp;Humidity;BMP_temperature;BMP_pressure;BME280_temperature;BME280_humidity;BME280_pressure;Samples;Min_cycle;Max_cycle;Signal;HPM_P1;HPM_P2
2022/12/19 15:34:55;;;;;;;;;;;;;;;;;;69008;1300;3177291;-37
2022/12/19 15:43:26;;;;;;;;;;;;;;;;;;33340;1289;3035316;-36
2022/12/19 15:51:49;;;;;;;;;77.00;60.00;;;;;;;;107076;1292;33536;-34
2022/12/19 15:54:15;;;;;;;;;67.00;51.00;;;;;;;;106808;1291;45782;-34
2022/12/19 15:56:45;;;;;;;;;67.00;52.00;;;;;;;;106805;1298;44058;-32
2022/12/19 15:59:26;;;;;;;;;68.00;52.00;;;;;;;;106815;1294;54424;-33
2022/12/19 16:01:52;;;;;;;;;72.00;56.25;;;;;;;;106824;1294;53888;-35
2022/12/19 16:04:18;;;;;;;;;72.50;57.00;;;;;;;;105995;1291;1123404;-32
2022/12/19 16:06:44;;;;;;;;;65.00;50.50;;;;;;;;107098;1291;45894;-32
2022/12/19 16:09:17;;;;;;;;;69.67;53.33;;;;;;;;107110;1291;34357;-31
2022/12/19 16:11:43;;;;;;;;;60.33;48.67;;;;;;;;107100;1291;55295;-34
2022/12/19 16:14:10;;;;;;;;;62.00;47.67;;;;;;;;107110;1294;53677;-33
2022/12/19 16:16:35;;;;;;;;;62.25;46.50;;;;;;;;107118;1291;49441;-34
2022/12/19 16:19:01;;;;;;;;;59.33;47.00;;;;;;;;107103;1292;34195;-34
2022/12/19 16:21:28;;;;;;;;;63.00;46.33;;;;;;;;107092;1292;34239;-35
2022/12/19 16:32:40;;;;;;;;;74.50;57.00;;;;;;;;106444;1288;35036;-34
2022/12/19 16:38:01;;;;;;;;;67.33;51.67;;;;;;;;105521;1299;33574;-25
2022/12/19 16:50:37;;;;;;;;;72.75;54.00;;;;;;;;106314;1294;33555;-41
2022/12/19 16:55:26;;;;;;;;;72.67;51.67;;;;;;;;106333;1292;35153;-40
2022/12/19 17:12:16;;;;;;;;;98.67;77.00;28.50;41.00;;;;;;106546;1285;164891;-55
2022/12/19 17:39:44;;;;;;;;;49.50;39.50;26.60;37.10;;;;;;33490;1297;3033200;-40
2022/12/19 17:42:31;;;;;;;;;54.00;42.00;26.70;37.00;;;;;;26673;1302;3027392;-50
2022/12/19 17:46:18;;;;;;;;;52.00;41.50;26.80;47.70;;;;;;107195;1290;33984;-43
2022/12/19 17:48:48;;;;;;;;;52.25;39.25;27.80;37.40;;;;;;106724;1294;46172;-40
2022/12/19 17:54:37;;;;;;;;;49.33;39.33;27.70;36.80;;;;;;106463;1297;35010;-71
2022/12/19 17:57:14;;;;;;;;;47.50;39.00;26.90;36.50;;;;;;108635;1277;45004;-64
2022/12/19 18:05:21;;;;;;;;;50.00;38.00;26.30;37.40;;;;;;107785;1283;35233;-59
2022/12/19 18:07:48;;;;;;;;;41.33;31.67;26.20;36.70;;;;;;109094;1274;45449;-66
2022/12/19 18:10:19;;;;;;;;;39.00;31.00;26.20;37.10;;;;;;109464;1270;54940;-60
2022/12/19 18:12:55;;;;;;;;;43.00;34.50;26.20;37.20;;;;;;109321;1269;55412;-60
2022/12/19 18:15:26;;;;;;;;;38.50;32.50;26.10;37.30;;;;;;109350;1269;50217;-60
2022/12/19 18:17:53;;;;;;;;;41.00;32.00;26.00;36.50;;;;;;108724;1271;842506;-62
2022/12/19 18:20:30;;;;;;;;;43.67;33.67;25.90;37.00;;;;;;109446;1267;45067;-61
2022/12/19 18:22:58;;;;;;;;;45.00;34.00;25.90;37.40;;;;;;109709;1263;56074;-62
2022/12/19 18:25:34;;;;;;;;;43.50;31.00;25.80;37.50;;;;;;109697;1263;55871;-63
2022/12/19 18:28:03;;;;;;;;;45.50;35.50;25.70;37.70;;;;;;109611;1262;49418;-62
2022/12/19 18:30:30;;;;;;;;;36.00;30.00;25.60;38.00;;;;;;109788;1266;49505;-61
2022/12/19 18:32:59;;;;;;;;;40.00;32.00;25.50;38.10;;;;;;109648;1266;45274;-60
2022/12/19 18:35:35;;;;;;;;;48.00;36.00;25.50;38.40;;;;;;109566;1266;55486;-60
2022/12/19 18:38:09;;;;;;;;;42.50;31.00;25.50;38.40;;;;;;109522;1263;55248;-61
2022/12/19 18:40:37;;;;;;;;;43.67;31.33;25.50;38.60;;;;;;109572;1262;50499;-62
2022/12/19 18:43:04;;;;;;;;;38.75;32.75;25.50;38.50;;;;;;109620;1263;48959;-59
2022/12/19 18:45:35;;;;;;;;;38.50;32.00;25.50;39.40;;;;;;109638;1259;45046;-60
2022/12/19 18:48:10;;;;;;;;;40.00;29.00;25.50;39.50;;;;;;109512;1262;55855;-60
2022/12/19 18:50:37;;;;;;;;;39.67;33.00;25.50;39.10;;;;;;109539;1262;55680;-61
2022/12/19 18:53:13;;;;;;;;;43.25;34.50;25.50;39.00;;;;;;109505;1265;49416;-61
2022/12/19 18:55:40;;;;;;;;;47.00;36.00;25.50;39.70;;;;;;109529;1266;49056;-60
2022/12/19 18:58:08;;;;;;;;;48.00;37.00;25.50;39.70;;;;;;109498;1260;44599;-62
2022/12/19 19:00:37;;;;;;;;;54.00;39.00;25.50;40.10;;;;;;109545;1266;55310;-61
2022/12/19 19:03:07;;;;;;;;;51.00;39.00;25.50;40.40;;;;;;109548;1266;55214;-61
2022/12/19 19:05:34;;;;;;;;;54.67;39.33;25.60;40.80;;;;;;109596;1266;49842;-60
2022/12/19 19:08:19;;;;;;;;;55.00;39.00;25.60;41.00;;;;;;109623;1263;49156;-60
2022/12/19 19:10:48;;;;;;;;;52.50;39.50;25.60;40.90;;;;;;109538;1263;46070;-60
2022/12/19 19:13:17;;;;;;;;;54.00;40.00;25.70;40.90;;;;;;109536;1262;56011;-60
2022/12/19 19:15:46;;;;;;;;;51.50;39.00;25.70;40.80;;;;;;109575;1266;56588;-61
2022/12/19 19:18:12;;;;;;;;;51.67;39.67;25.70;40.90;;;;;;109567;1266;49494;-62
2022/12/19 19:20:40;;;;;;;;;51.00;39.33;25.70;40.80;;;;;;109547;1259;49293;-62
2022/12/19 19:23:09;;;;;;;;;46.00;38.00;25.70;40.90;;;;;;109587;1266;45784;-62
2022/12/19 19:25:36;;;;;;;;;55.00;38.00;25.70;40.80;;;;;;109649;1263;55499;-63
2022/12/19 19:28:04;;;;;;;;;49.50;38.00;25.70;41.10;;;;;;109589;1263;55770;-63
2022/12/19 19:30:33;;;;;;;;;51.67;36.00;25.70;40.90;;;;;;109590;1260;50404;-63
2022/12/19 19:33:06;;;;;;;;;48.33;37.33;25.70;40.70;;;;;;109575;1265;49048;-63
2022/12/19 19:35:33;;;;;;;;;51.33;36.67;25.80;40.80;;;;;;109609;1263;44886;-63
2022/12/19 19:38:05;;;;;;;;;47.50;37.50;25.70;40.70;;;;;;109525;1263;55252;-63
2022/12/19 19:40:34;;;;;;;;;52.33;40.00;25.70;40.80;;;;;;109531;1259;56079;-62
2022/12/19 19:43:03;;;;;;;;;49.00;37.00;25.70;40.80;;;;;;109564;1265;48876;-63
2022/12/19 19:45:30;;;;;;;;;51.00;41.00;25.70;40.80;;;;;;109583;1263;50013;-62
2022/12/19 19:48:02;;;;;;;;;47.00;35.50;25.70;40.80;;;;;;109528;1266;45067;-63
2022/12/19 19:50:30;;;;;;;;;48.67;38.00;25.70;40.80;;;;;;109535;1259;55589;-62
2022/12/19 19:52:57;;;;;;;;;49.50;36.50;25.70;40.90;;;;;;109629;1263;56028;-63
2022/12/19 19:55:24;;;;;;;;;48.00;36.50;25.70;40.90;;;;;;109536;1266;50001;-62
2022/12/19 19:57:51;;;;;;;;;46.00;36.50;25.70;41.00;;;;;;109475;1263;49897;-63
2022/12/19 20:00:19;;;;;;;;;49.00;37.75;25.70;41.10;;;;;;109577;1263;44853;-61
2022/12/19 20:02:46;;;;;;;;;52.00;36.00;25.60;41.10;;;;;;109550;1265;55216;-62
2022/12/19 20:05:14;;;;;;;;;44.00;34.00;25.60;41.20;;;;;;109674;1264;56747;-63
2022/12/19 20:07:41;;;;;;;;;51.50;39.00;25.60;41.30;;;;;;109710;1269;50106;-62
2022/12/19 20:10:09;;;;;;;;;47.67;37.00;25.60;41.30;;;;;;109657;1267;49349;-62
2022/12/19 20:12:36;;;;;;;;;48.00;35.00;25.60;41.30;;;;;;109689;1265;45455;-62
2022/12/19 20:15:03;;;;;;;;;50.00;38.33;25.60;41.30;;;;;;109690;1266;55702;-62
2022/12/19 20:17:30;;;;;;;;;45.50;35.00;25.60;41.40;;;;;;109571;1267;55645;-62
2022/12/19 20:19:57;;;;;;;;;41.25;33.50;25.60;41.60;;;;;;109512;1266;50517;-61
2022/12/19 20:22:24;;;;;;;;;48.00;38.00;25.60;41.50;;;;;;109517;1263;49368;-61
2022/12/19 20:24:52;;;;;;;;;52.00;37.00;25.60;41.50;;;;;;109508;1259;44717;-62
2022/12/19 20:27:19;;;;;;;;;46.00;36.33;25.60;41.50;;;;;;109578;1263;55062;-63
2022/12/19 20:29:46;;;;;;;;;47.00;36.00;25.70;41.60;;;;;;109528;1263;56116;-63
2022/12/19 20:32:13;;;;;;;;;46.00;34.00;25.70;41.70;;;;;;109502;1266;49770;-62
2022/12/19 20:34:41;;;;;;;;;38.50;32.50;25.70;41.60;;;;;;109532;1263;48823;-62
2022/12/19 20:37:08;;;;;;;;;40.50;32.00;25.70;41.60;;;;;;109515;1262;44831;-63
2022/12/19 20:39:35;;;;;;;;;45.50;30.50;25.70;41.60;;;;;;109535;1262;55685;-62
2022/12/19 20:42:02;;;;;;;;;45.00;33.00;25.80;41.60;;;;;;109484;1262;55499;-62
2022/12/19 20:44:29;;;;;;;;;37.00;32.50;25.80;41.50;;;;;;109513;1260;50269;-62
2022/12/19 20:46:56;;;;;;;;;44.33;34.67;25.80;41.50;;;;;;109531;1267;49771;-62
2022/12/19 20:49:23;;;;;;;;;45.33;37.00;25.80;41.50;;;;;;109646;1262;45401;-62
2022/12/19 20:51:50;;;;;;;;;44.67;36.67;25.80;41.50;;;;;;109532;1262;56133;-61
2022/12/19 20:54:17;;;;;;;;;39.00;32.00;25.80;41.50;;;;;;109485;1263;55993;-62
2022/12/19 20:56:44;;;;;;;;;45.00;35.67;25.80;41.20;;;;;;109557;1265;49382;-64
2022/12/19 20:59:11;;;;;;;;;41.67;35.67;25.80;41.70;;;;;;109512;1263;49594;-64
2022/12/19 21:01:38;;;;;;;;;40.50;33.00;25.80;41.50;;;;;;109512;1265;44739;-63
2022/12/19 21:04:05;;;;;;;;;44.00;33.00;25.80;41.50;;;;;;109517;1259;55479;-63
2022/12/19 21:06:32;;;;;;;;;37.75;31.00;25.80;41.40;;;;;;109481;1259;56162;-63
2022/12/19 21:08:59;;;;;;;;;52.75;39.25;25.80;41.40;;;;;;109520;1262;49178;-62
2022/12/19 21:11:26;;;;;;;;;45.50;36.00;25.80;41.50;;;;;;110093;1260;49095;-63
2022/12/19 21:13:53;;;;;;;;;43.33;34.33;25.80;41.50;;;;;;110077;1259;45346;-61
2022/12/19 21:16:21;;;;;;;;;41.50;34.00;25.80;41.50;;;;;;110082;1259;56400;-63
2022/12/19 21:18:49;;;;;;;;;46.00;38.00;25.80;41.50;;;;;;110128;1260;55804;-62
2022/12/19 21:21:26;;;;;;;;;44.25;35.00;25.80;41.70;;;;;;110090;1258;49098;-63
2022/12/19 21:23:54;;;;;;;;;47.67;35.67;25.80;41.70;;;;;;110073;1258;49811;-63
2022/12/19 21:26:22;;;;;;;;;45.67;36.00;25.80;41.70;;;;;;110085;1257;44972;-62
2022/12/19 21:28:49;;;;;;;;;39.67;35.00;25.80;41.70;;;;;;110063;1260;55692;-62
2022/12/19 21:31:19;;;;;;;;;46.00;35.00;25.80;41.80;;;;;;110372;1260;55493;-62
2022/12/19 21:33:47;;;;;;;;;46.00;34.50;25.80;41.80;;;;;;110127;1259;49672;-63
2022/12/19 21:36:18;;;;;;;;;42.00;34.33;25.80;41.90;;;;;;110025;1263;49052;-62
2022/12/19 21:38:46;;;;;;;;;39.50;32.75;25.80;42.10;;;;;;110076;1263;45141;-62
2022/12/19 21:41:17;;;;;;;;;48.00;38.00;25.80;41.90;;;;;;110041;1260;55812;-63
2022/12/19 21:43:46;;;;;;;;;45.33;35.67;25.80;42.00;;;;;;110080;1259;56818;-62
2022/12/19 21:46:14;;;;;;;;;44.00;35.00;25.70;41.90;;;;;;110345;1257;49021;-62
2022/12/19 21:48:44;;;;;;;;;46.00;33.00;25.70;41.90;;;;;;110357;1256;49188;-63
2022/12/19 21:51:12;;;;;;;;;46.00;36.50;25.70;42.00;;;;;;110323;1254;44441;-63
2022/12/19 21:53:39;;;;;;;;;46.00;37.25;25.70;42.00;;;;;;110359;1257;55148;-62
2022/12/19 21:56:13;;;;;;;;;43.00;34.00;25.70;42.00;;;;;;110541;1259;56171;-62
2022/12/19 21:58:40;;;;;;;;;47.67;38.00;25.60;42.00;;;;;;110551;1260;50111;-62
2022/12/19 22:01:12;;;;;;;;;43.25;35.50;25.60;42.00;;;;;;110379;1259;49835;-61
2022/12/19 22:03:40;;;;;;;;;44.00;36.00;25.60;42.00;;;;;;110161;1259;46229;-61
2022/12/19 22:06:07;;;;;;;;;40.00;34.67;25.60;42.10;;;;;;110066;1260;56447;-61
2022/12/19 22:08:35;;;;;;;;;42.75;34.00;25.60;42.10;;;;;;110082;1260;56073;-62
2022/12/19 22:11:02;;;;;;;;;41.25;33.75;25.60;42.10;;;;;;110412;1260;49811;-62
2022/12/19 22:13:29;;;;;;;;;49.33;37.33;25.60;42.10;;;;;;110503;1262;49485;-61
2022/12/19 22:16:00;;;;;;;;;41.50;34.00;25.60;42.10;;;;;;110052;1260;45141;-63
2022/12/19 22:18:27;;;;;;;;;42.67;33.67;25.60;42.00;;;;;;110127;1259;55375;-62
2022/12/19 22:20:58;;;;;;;;;38.67;34.00;25.60;42.00;;;;;;110373;1254;55792;-62
2022/12/19 22:23:26;;;;;;;;;43.00;34.00;25.60;41.90;;;;;;110561;1260;50497;-63
2022/12/19 22:26:04;;;;;;;;;49.00;38.75;25.70;41.90;;;;;;110307;1259;49561;-62
2022/12/19 22:28:34;;;;;;;;;48.33;34.67;25.70;41.80;;;;;;110338;1260;44843;-63
2022/12/19 22:31:02;;;;;;;;;44.00;35.00;25.70;41.70;;;;;;110237;1259;55285;-62
2022/12/19 22:33:29;;;;;;;;;46.75;36.50;25.80;41.80;;;;;;110089;1258;55470;-62
2022/12/19 22:35:56;;;;;;;;;42.00;36.00;25.80;41.70;;;;;;110123;1260;49601;-63
2022/12/19 22:38:23;;;;;;;;;46.67;35.33;25.80;41.70;;;;;;110325;1258;50455;-63
2022/12/19 22:40:50;;;;;;;;;45.00;37.00;25.80;41.60;;;;;;110550;1260;45400;-62
2022/12/19 22:43:17;;;;;;;;;44.00;35.00;25.80;41.60;;;;;;110077;1259;55546;-62
2022/12/19 22:45:44;;;;;;;;;46.00;34.00;25.80;41.60;;;;;;110089;1256;55252;-62
2022/12/19 22:48:10;;;;;;;;;44.75;34.50;25.80;41.60;;;;;;110081;1259;49352;-63
2022/12/19 22:50:44;;;;;;;;;47.33;38.00;25.80;41.50;;;;;;110032;1259;50115;-62
2022/12/19 22:53:13;;;;;;;;;42.00;34.50;25.80;41.50;;;;;;110077;1259;44866;-62
2022/12/19 22:55:41;;;;;;;;;42.00;34.00;25.80;41.50;;;;;;110556;1257;55528;-62
2022/12/19 22:58:08;;;;;;;;;45.67;33.00;25.80;41.50;;;;;;110515;1260;56086;-61
2022/12/19 23:00:35;;;;;;;;;45.33;37.00;25.80;41.40;;;;;;110552;1260;49414;-63
2022/12/19 23:03:02;;;;;;;;;47.00;35.33;25.80;41.70;;;;;;110533;1257;49506;-62
2022/12/19 23:05:29;;;;;;;;;41.33;33.67;25.80;41.40;;;;;;110531;1257;44598;-63
2022/12/19 23:07:56;;;;;;;;;49.75;38.00;25.80;41.50;;;;;;110551;1259;55717;-62
2022/12/19 23:10:23;;;;;;;;;45.00;34.75;25.70;41.50;;;;;;110551;1259;55279;-62
2022/12/19 23:12:50;;;;;;;;;42.67;36.00;25.70;41.50;;;;;;110527;1253;49288;-62
2022/12/19 23:15:17;;;;;;;;;44.67;37.00;25.70;41.50;;;;;;110520;1259;49333;-62
2022/12/19 23:17:43;;;;;;;;;42.50;35.00;25.70;41.60;;;;;;110103;1260;44770;-62
2022/12/19 23:20:11;;;;;;;;;37.50;32.75;25.70;41.60;;;;;;110458;1259;56030;-62
2022/12/19 23:22:38;;;;;;;;;41.00;33.50;25.70;41.60;;;;;;110208;1260;55392;-62
2022/12/19 23:25:06;;;;;;;;;43.50;35.50;25.60;41.80;;;;;;110048;1259;50039;-63
2022/12/19 23:27:33;;;;;;;;;42.33;34.33;25.60;41.60;;;;;;110116;1259;50037;-62
2022/12/19 23:29:59;;;;;;;;;36.00;30.00;25.60;41.60;;;;;;110058;1259;45264;-62
2022/12/19 23:32:26;;;;;;;;;42.00;33.75;25.60;41.60;;;;;;110488;1259;55191;-62
2022/12/19 23:34:53;;;;;;;;;41.00;33.00;25.60;41.60;;;;;;110025;1263;56019;-62
2022/12/19 23:37:20;;;;;;;;;43.00;33.33;25.60;41.70;;;;;;110125;1260;49736;-62
2022/12/19 23:39:47;;;;;;;;;45.00;36.00;25.60;41.70;;;;;;110161;1260;50090;-62
2022/12/19 23:42:14;;;;;;;;;43.33;36.00;25.60;41.70;;;;;;110160;1260;45205;-62
2022/12/19 23:44:41;;;;;;;;;45.00;36.00;25.50;41.60;;;;;;110164;1259;56113;-63
2022/12/19 23:47:07;;;;;;;;;41.33;33.33;25.50;41.60;;;;;;110051;1256;55563;-62
2022/12/19 23:49:34;;;;;;;;;42.00;33.75;25.50;41.60;;;;;;110071;1258;49809;-62
2022/12/19 23:52:01;;;;;;;;;37.00;32.00;25.50;41.60;;;;;;110090;1263;49234;-62
2022/12/19 23:54:28;;;;;;;;;41.00;35.00;25.50;41.60;;;;;;110058;1263;44353;-63
2022/12/19 23:56:55;;;;;;;;;45.00;34.00;25.50;41.80;;;;;;110111;1258;55794;-63
2022/12/19 23:59:22;;;;;;;;;43.00;34.50;25.50;41.60;;;;;;110105;1259;56258;-62
